Fraser, Colorado
Current Conditions -  °F | °C
As of 1:14 AM on Thursday 29 Jan 2015 (Local Time) from K0CO Reporting Station
Overcast Overcast  
Wind Chill:   Ceiling: 1600
Heat Index: 14°   Visibility: NA
Dew Point: 10°   Wind: 12mph
Humidity: 86%   Direction: 310°NW
Pressure: 30.39"   Gusts: NA
Location:  39.94°N, 105.82°W
Report Text: K0CO 290814Z AUTO 31010KT SCT002 SCT006 OVC016 M10/M12 A3039 RMK AO2 PWINO
Loading
Personal Weather Stations






























Interactive Weather Map New forecast layout! Learn more

10-Day Weather Forecast

Advertisements
Track Severe Weather on mobile